Time;durP1;ratioP1;P1;durP2;ratioP2;P2;SDS_P1;SDS_P2;PMS_P1;PMS_P2;Temp;Humidity;BMP_temperature;BMP_pressure;BME280_temperature;BME280_humidity;BME280_pressure;Samples;Min_cycle;Max_cycle;Signal;HPM_P1;HPM_P2
2022/11/02 00:02:04;;;;;;;;;;;;;;;21.79;65.91;101394.19;5060700;28;3108;-64
2022/11/02 00:04:30;;;;;;;;;;;;;;;21.77;66.10;101390.47;5069074;28;2913;-64
2022/11/02 00:06:57;;;;;;;;;;;;;;;21.75;66.02;101394.72;5063994;28;2968;-64
2022/11/02 00:09:23;;;;;;;;;;;;;;;21.76;65.91;101395.47;5073041;28;2706;-64
2022/11/02 00:11:50;;;;;;;;;;;;;;;21.79;66.08;101390.56;5056024;28;3145;-63
2022/11/02 00:14:16;;;;;;;;;;;;;;;21.76;66.06;101395.47;5062962;28;3160;-64
2022/11/02 00:16:42;;;;;;;;;;;;;;;21.75;66.18;101391.84;5066529;28;3048;-63
2022/11/02 00:19:09;;;;;;;;;;;;;;;21.75;66.03;101406.25;5070797;28;2753;-63
2022/11/02 00:21:35;;;;;;;;;;;;;;;21.73;66.13;101394.63;5057190;28;3390;-64
2022/11/02 00:24:01;;;;;;;;;;;;;;;21.75;65.97;101393.97;5063503;28;3001;-63
2022/11/02 00:26:28;;;;;;;;;;;;;;;21.73;65.93;101397.50;5061980;28;3119;-63
2022/11/02 00:28:54;;;;;;;;;;;;;;;21.71;65.98;101406.06;5069142;28;2979;-63
2022/11/02 00:31:20;;;;;;;;;;;;;;;21.73;65.81;101394.63;5069396;28;2874;-64
2022/11/02 00:33:48;;;;;;;;;;;;;;;21.77;65.68;101387.59;5067043;28;3126;-64
2022/11/02 00:36:14;;;;;;;;;;;;;;;21.75;65.67;101396.88;5068735;28;3066;-64
2022/11/02 00:38:41;;;;;;;;;;;;;;;21.72;66.21;101396.03;5070403;28;3156;-63
2022/11/02 00:41:07;;;;;;;;;;;;;;;21.74;65.93;101392.50;5069518;28;3164;-64
2022/11/02 00:43:33;;;;;;;;;;;;;;;21.72;65.70;101398.16;5069116;28;2900;-64
2022/11/02 00:46:00;;;;;;;;;;;;;;;21.74;65.94;101407.66;5070503;28;2189;-64
2022/11/02 00:48:26;;;;;;;;;;;;;;;21.73;65.82;101406.16;5063751;28;3213;-64
2022/11/02 00:50:53;;;;;;;;;;;;;;;21.71;65.65;101408.94;5063617;28;3112;-64
2022/11/02 00:53:22;;;;;;;;;;;;;;;21.70;66.12;101403.81;5065408;28;2971;-63
2022/11/02 00:55:52;;;;;;;;;;;;;;;21.73;66.02;101403.28;5062794;28;4818;-64
2022/11/02 00:58:19;;;;;;;;;;;;;;;21.66;66.25;101401.47;5064289;28;3122;-63
2022/11/02 01:00:46;;;;;;;;;;;;;;;21.72;66.37;101401.78;5051649;28;2994;-64
2022/11/02 01:03:12;;;;;;;;;;;;;;;21.65;66.45;101397.13;5066749;28;3135;-64
2022/11/02 01:05:39;;;;;;;;;;;;;;;21.69;66.50;101391.56;5055246;28;3182;-64
2022/11/02 01:08:05;;;;;;;;;;;;;;;21.66;66.59;101397.84;5076868;28;1684;-64
2022/11/02 01:10:32;;;;;;;;;;;;;;;21.65;66.56;101402.88;5067375;28;3244;-64
2022/11/02 01:12:59;;;;;;;;;;;;;;;21.66;66.14;101398.59;5053858;28;3319;-64
2022/11/02 01:15:25;;;;;;;;;;;;;;;21.66;66.05;101395.72;5064654;28;3153;-63
2022/11/02 01:17:52;;;;;;;;;;;;;;;21.66;66.28;101394.97;5049968;28;3089;-64
2022/11/02 01:20:19;;;;;;;;;;;;;;;21.65;66.24;101397.13;5063725;28;2796;-64
2022/11/02 01:22:45;;;;;;;;;;;;;;;21.62;66.54;101398.38;5066103;28;3061;-64
2022/11/02 01:25:11;;;;;;;;;;;;;;;21.65;66.15;101397.13;5069753;28;3540;-64
2022/11/02 01:27:38;;;;;;;;;;;;;;;21.64;66.22;101400.63;5076714;28;2985;-64
2022/11/02 01:30:04;;;;;;;;;;;;;;;21.61;66.50;101394.03;5068426;28;3117;-64
2022/11/02 01:32:31;;;;;;;;;;;;;;;21.63;66.50;101391.25;5060660;28;3113;-63
2022/11/02 01:34:57;;;;;;;;;;;;;;;21.61;66.57;101387.53;5057433;28;3121;-64
2022/11/02 01:37:23;;;;;;;;;;;;;;;21.58;66.39;101380.16;5052838;28;2987;-63
2022/11/02 01:39:49;;;;;;;;;;;;;;;21.58;66.59;101380.16;5061289;28;3067;-64
2022/11/02 01:42:18;;;;;;;;;;;;;;;21.60;66.51;101378.13;5055327;28;3143;-64
2022/11/02 01:44:44;;;;;;;;;;;;;;;21.63;66.02;101373.97;5062354;28;3073;-64
2022/11/02 01:47:24;;;;;;;;;;;;;;;21.64;66.00;101377.59;5058903;28;3063;-64
2022/11/02 01:50:11;;;;;;;;;;;;;;;21.65;65.90;101381.97;5055942;28;3042;-63
2022/11/02 01:52:37;;;;;;;;;;;;;;;21.60;66.23;101378.13;5059966;28;2890;-63
2022/11/02 01:55:11;;;;;;;;;;;;;;;21.61;66.10;101385.38;5061349;28;2857;-64
2022/11/02 01:57:38;;;;;;;;;;;;;;;21.61;65.76;101379.63;5062361;28;3077;-64
2022/11/02 02:00:08;;;;;;;;;;;;;;;21.61;66.25;101373.13;5057944;28;3312;-63
2022/11/02 02:02:46;;;;;;;;;;;;;;;21.61;65.83;101373.13;5058620;28;3283;-64
2022/11/02 02:05:13;;;;;;;;;;;;;;;21.59;66.21;101373.75;5057647;28;3192;-64
2022/11/02 02:07:39;;;;;;;;;;;;;;;21.61;65.74;101367.34;5059211;28;3283;-64
2022/11/02 02:10:06;;;;;;;;;;;;;;;21.56;66.44;101366.41;5049881;28;2695;-64
2022/11/02 02:12:32;;;;;;;;;;;;;;;21.58;66.24;101369.41;5059387;28;3181;-64
2022/11/02 02:14:59;;;;;;;;;;;;;;;21.56;66.02;101360.66;5055760;28;3199;-64
2022/11/02 02:17:31;;;;;;;;;;;;;;;21.60;66.40;101355.09;5053109;28;2945;-63
2022/11/02 02:20:07;;;;;;;;;;;;;;;21.57;67.13;101355.63;5060300;28;3565;-64
2022/11/02 02:22:42;;;;;;;;;;;;;;;21.60;66.64;101366.63;5054441;28;4310;-64
2022/11/02 02:25:21;;;;;;;;;;;;;;;21.57;66.99;101362.13;5055903;28;3150;-63
2022/11/02 02:27:59;;;;;;;;;;;;;;;21.56;66.68;101360.66;5057883;28;2844;-64
2022/11/02 02:30:27;;;;;;;;;;;;;;;21.58;66.39;101360.75;5059206;28;2865;-64
2022/11/02 02:33:04;;;;;;;;;;;;;;;21.55;66.77;101364.91;5065042;28;2755;-64
2022/11/02 02:35:42;;;;;;;;;;;;;;;21.54;66.75;101358.41;5047337;28;2997;-64
2022/11/02 02:38:21;;;;;;;;;;;;;;;21.53;66.78;101365.56;5068876;28;1786;-64
2022/11/02 02:41:07;;;;;;;;;;;;;;;21.58;66.43;101352.09;5063936;28;2940;-64
2022/11/02 02:43:39;;;;;;;;;;;;;;;21.58;66.74;101352.09;5064435;28;3030;-64
2022/11/02 02:46:07;;;;;;;;;;;;;;;21.56;66.29;101348.38;5067281;28;2932;-64
2022/11/02 02:48:33;;;;;;;;;;;;;;;21.57;66.33;101350.59;5073670;28;2305;-64
2022/11/02 02:51:04;;;;;;;;;;;;;;;21.51;66.62;101358.97;5065472;28;2896;-64
2022/11/02 02:53:33;;;;;;;;;;;;;;;21.54;66.53;101354.78;5065972;28;2933;-64
2022/11/02 02:56:00;;;;;;;;;;;;;;;21.54;66.40;101358.41;5062933;28;2900;-64
2022/11/02 02:58:28;;;;;;;;;;;;;;;21.54;66.46;101357.66;5066277;28;2783;-64
2022/11/02 03:00:55;;;;;;;;;;;;;;;21.53;66.54;101356.16;5062843;28;3048;-63
2022/11/02 03:03:22;;;;;;;;;;;;;;;21.56;66.13;101345.50;5069978;28;2768;-64
2022/11/02 03:06:18;;;;;;;;;;;;;;;21.54;66.41;101346.13;5066459;28;3577;-63
2022/11/02 03:08:56;;;;;;;;;;;;;;;21.50;66.57;101345.94;5045386;28;2839;-64
2022/11/02 03:11:23;;;;;;;;;;;;;;;21.52;66.07;101343.88;5068634;28;2778;-64
2022/11/02 03:14:05;;;;;;;;;;;;;;;21.51;66.35;101347.44;5053958;28;3017;-63
2022/11/02 03:16:51;;;;;;;;;;;;;;;21.51;66.14;101353.19;5053786;28;2827;-63
2022/11/02 03:19:18;;;;;;;;;;;;;;;21.51;66.20;101350.31;5067443;28;3036;-64
2022/11/02 03:21:44;;;;;;;;;;;;;;;21.51;66.13;101347.44;5062894;28;2824;-64
2022/11/02 03:24:17;;;;;;;;;;;;;;;21.49;66.65;101345.19;5054571;28;2968;-64
2022/11/02 03:26:46;;;;;;;;;;;;;;;21.49;66.01;101350.22;5059689;28;3063;-64
2022/11/02 03:29:33;;;;;;;;;;;;;;;21.51;65.95;101356.06;5048542;28;2993;-64
2022/11/02 03:32:06;;;;;;;;;;;;;;;21.50;66.14;101351.69;5061254;28;2587;-64
2022/11/02 03:34:37;;;;;;;;;;;;;;;21.47;66.24;101356.59;5045698;28;2681;-63
2022/11/02 03:37:08;;;;;;;;;;;;;;;21.50;66.06;101357.44;5058080;28;3005;-63
2022/11/02 03:39:44;;;;;;;;;;;;;;;21.50;66.03;101357.44;5057462;28;2911;-64
2022/11/02 03:42:12;;;;;;;;;;;;;;;21.54;66.13;101357.66;5048270;28;1910;-64
2022/11/02 03:44:39;;;;;;;;;;;;;;;21.55;65.74;101359.13;5068149;28;3888;-64
2022/11/02 03:47:08;;;;;;;;;;;;;;;21.58;65.96;101357.09;5067991;28;3047;-64
2022/11/02 03:49:35;;;;;;;;;;;;;;;21.59;66.07;101353.56;5049307;28;3048;-64
2022/11/02 03:52:02;;;;;;;;;;;;;;;21.58;66.29;101349.22;5071506;28;2858;-64
2022/11/02 03:54:49;;;;;;;;;;;;;;;21.61;65.96;101358.72;5057547;28;2781;-64
2022/11/02 03:57:18;;;;;;;;;;;;;;;21.58;66.33;101346.34;5075334;28;2636;-64
2022/11/02 03:59:45;;;;;;;;;;;;;;;21.62;66.35;101337.88;5050397;28;2900;-64
2022/11/02 04:02:11;;;;;;;;;;;;;;;21.62;66.00;101346.50;5073873;28;2896;-64
2022/11/02 04:04:48;;;;;;;;;;;;;;;21.61;66.24;101345.03;5062706;28;3061;-64
2022/11/02 04:07:16;;;;;;;;;;;;;;;21.61;65.89;101339.28;5073529;28;2918;-64
2022/11/02 04:09:42;;;;;;;;;;;;;;;21.61;66.15;101344.28;5046361;28;2802;-64
2022/11/02 04:14:54;;;;;;;;;;;;;;;21.63;66.14;101333.59;5063920;28;2956;-64
2022/11/02 04:20:10;;;;;;;;;;;;;;;21.66;66.12;101340.97;5072973;28;3099;-64
2022/11/02 04:25:23;;;;;;;;;;;;;;;21.72;65.82;101347.03;5073462;28;2831;-64
2022/11/02 04:28:05;;;;;;;;;;;;;;;21.70;66.05;101346.91;5069775;28;2856;-64
2022/11/02 04:30:33;;;;;;;;;;;;;;;21.69;65.91;101353.31;5062741;28;3109;-64
2022/11/02 04:35:51;;;;;;;;;;;;;;;21.67;66.07;101353.22;5060682;28;2789;-64
2022/11/02 04:43:51;;;;;;;;;;;;;;;21.65;66.01;101356.78;5055774;28;2946;-63
2022/11/02 04:46:18;;;;;;;;;;;;;;;21.69;65.93;101356.97;5065271;28;2772;-64
2022/11/02 04:48:45;;;;;;;;;;;;;;;21.66;65.96;101357.50;5060990;28;2711;-64
2022/11/02 04:51:12;;;;;;;;;;;;;;;21.64;65.91;101345.88;5063275;28;2383;-64
2022/11/02 04:53:38;;;;;;;;;;;;;;;21.65;66.08;101347.38;5049148;28;3054;-64
2022/11/02 04:56:07;;;;;;;;;;;;;;;21.66;65.78;101343.09;5048360;28;3288;-64
2022/11/02 04:58:34;;;;;;;;;;;;;;;21.68;65.73;101349.69;5059629;28;2588;-64
2022/11/02 05:01:05;;;;;;;;;;;;;;;21.70;65.94;101341.16;5045741;28;3127;-64
2022/11/02 05:03:32;;;;;;;;;;;;;;;21.71;65.81;101342.63;5054848;28;3022;-64
2022/11/02 05:05:58;;;;;;;;;;;;;;;21.70;65.66;101341.16;5049050;28;2949;-64
2022/11/02 05:08:26;;;;;;;;;;;;;;;21.72;65.65;101344.13;5049441;28;3035;-64
2022/11/02 05:10:56;;;;;;;;;;;;;;;21.72;65.67;101341.25;5058835;28;3175;-64
2022/11/02 05:13:23;;;;;;;;;;;;;;;21.69;65.76;101345.44;5065232;28;2968;-64
2022/11/02 05:15:50;;;;;;;;;;;;;;;21.70;65.84;101346.19;5066608;28;3539;-64
2022/11/02 05:18:16;;;;;;;;;;;;;;;21.73;65.87;101345.63;5070304;28;2705;-64
2022/11/02 05:20:49;;;;;;;;;;;;;;;21.71;65.98;101348.41;5070619;28;2828;-64
2022/11/02 05:23:17;;;;;;;;;;;;;;;21.70;66.03;101341.16;5069840;28;2953;-64
2022/11/02 05:25:51;;;;;;;;;;;;;;;21.71;65.83;101342.63;5070128;28;2932;-64
2022/11/02 05:28:17;;;;;;;;;;;;;;;21.72;65.64;101347.03;5056951;28;3034;-64
2022/11/02 05:30:44;;;;;;;;;;;;;;;21.73;65.66;101350.66;5053836;28;2785;-64
2022/11/02 05:33:10;;;;;;;;;;;;;;;21.70;66.21;101349.81;5070821;28;3076;-64
2022/11/02 05:35:37;;;;;;;;;;;;;;;21.72;65.72;101349.91;5067704;28;3564;-64
2022/11/02 05:38:03;;;;;;;;;;;;;;;21.72;65.88;101344.13;5062267;28;3609;-64
2022/11/02 05:40:30;;;;;;;;;;;;;;;21.69;65.88;101341.78;5059377;28;3018;-64
2022/11/02 05:42:59;;;;;;;;;;;;;;;21.67;66.09;101336.69;5053501;28;3078;-64
2022/11/02 05:45:26;;;;;;;;;;;;;;;21.71;65.89;101345.53;5059983;28;3054;-64
2022/11/02 05:47:52;;;;;;;;;;;;;;;21.71;65.58;101336.88;5055692;28;3044;-65
2022/11/02 05:50:19;;;;;;;;;;;;;;;21.40;60.61;101333.88;5060228;28;3372;-62
2022/11/02 05:52:45;;;;;;;;;;;;;;;21.49;62.42;101332.91;5054326;28;2881;-58
2022/11/02 05:55:12;;;;;;;;;;;;;;;21.65;63.33;101339.47;5057503;28;3136;-61
2022/11/02 05:57:38;;;;;;;;;;;;;;;21.77;64.03;101350.09;5061630;28;2804;-60
2022/11/02 06:00:05;;;;;;;;;;;;;;;21.31;60.77;101347.88;5065053;28;2891;-60
2022/11/02 06:02:37;;;;;;;;;;;;;;;21.54;60.38;101343.25;5060605;28;1568;-60
2022/11/02 06:05:04;;;;;;;;;;;;;;;21.66;61.12;101343.84;5065422;28;2765;-60
2022/11/02 06:07:30;;;;;;;;;;;;;;;21.72;61.30;101338.38;5061065;28;1600;-60
2022/11/02 06:09:56;;;;;;;;;;;;;;;21.75;61.60;101351.47;5063034;28;2896;-60
2022/11/02 06:12:23;;;;;;;;;;;;;;;21.75;61.88;101337.06;5062180;28;1741;-60
2022/11/02 06:14:49;;;;;;;;;;;;;;;21.76;62.70;101343.56;5064865;28;2738;-60
2022/11/02 06:17:15;;;;;;;;;;;;;;;21.74;63.07;101341.34;5063546;28;1751;-60
2022/11/02 06:19:42;;;;;;;;;;;;;;;21.75;64.08;101345.72;5064284;28;2419;-61
2022/11/02 06:22:08;;;;;;;;;;;;;;;21.74;63.55;101350.00;5059802;28;2576;-60
2022/11/02 06:24:34;;;;;;;;;;;;;;;21.75;63.89;101347.88;5061338;28;1971;-61
2022/11/02 06:27:01;;;;;;;;;;;;;;;21.74;64.45;101347.13;5063989;28;1752;-60
2022/11/02 06:29:27;;;;;;;;;;;;;;;21.74;64.31;101357.91;5062650;28;1691;-60
2022/11/02 06:31:53;;;;;;;;;;;;;;;21.74;64.50;101352.88;5060881;28;2769;-59
2022/11/02 06:34:20;;;;;;;;;;;;;;;21.75;64.34;101360.13;5061553;28;1779;-59
2022/11/02 06:36:46;;;;;;;;;;;;;;;21.74;64.33;101364.41;5067354;28;3405;-59
2022/11/02 06:39:12;;;;;;;;;;;;;;;21.77;64.75;101364.53;5063103;28;2860;-59
2022/11/02 06:41:39;;;;;;;;;;;;;;;21.79;65.10;101376.16;5068545;28;2936;-59
2022/11/02 06:44:05;;;;;;;;;;;;;;;21.74;65.12;101370.19;5069071;28;1910;-59
2022/11/02 06:46:31;;;;;;;;;;;;;;;21.75;65.25;101365.91;5064070;28;2797;-59
2022/11/02 06:48:58;;;;;;;;;;;;;;;21.77;65.28;101373.91;5066591;28;1671;-59
2022/11/02 06:51:24;;;;;;;;;;;;;;;21.76;64.92;101372.41;5068090;28;1616;-59
2022/11/02 06:53:50;;;;;;;;;;;;;;;21.76;64.93;101372.41;5065045;28;1610;-59
2022/11/02 06:56:17;;;;;;;;;;;;;;;21.74;65.34;101375.22;5067569;28;1723;-59
2022/11/02 06:58:43;;;;;;;;;;;;;;;21.73;65.52;101379.47;5062776;28;3157;-59
2022/11/02 07:01:09;;;;;;;;;;;;;;;21.74;65.12;101378.84;5066979;28;1516;-59
2022/11/02 07:03:36;;;;;;;;;;;;;;;21.75;65.18;101373.81;5061745;28;1985;-59
2022/11/02 07:06:03;;;;;;;;;;;;;;;21.74;65.00;101364.41;5062356;28;1642;-59
2022/11/02 07:08:29;;;;;;;;;;;;;;;21.77;65.05;101373.91;5067284;28;1858;-59
2022/11/02 07:10:55;;;;;;;;;;;;;;;21.77;65.40;101373.91;5068586;28;1555;-59
2022/11/02 07:13:21;;;;;;;;;;;;;;;21.77;65.22;101362.38;5065119;28;1781;-60
2022/11/02 07:15:52;;;;;;;;;;;;;;;21.74;65.34;101370.19;5065645;28;1545;-59
2022/11/02 07:18:18;;;;;;;;;;;;;;;21.79;65.39;101371.13;5067178;28;1838;-59
2022/11/02 07:20:44;;;;;;;;;;;;;;;21.80;65.38;101372.59;5067692;28;2114;-59
2022/11/02 07:23:11;;;;;;;;;;;;;;;21.79;65.34;101379.03;5060101;28;2292;-59
2022/11/02 07:25:37;;;;;;;;;;;;;;;21.78;65.45;101383.28;5066401;28;2098;-59
2022/11/02 07:28:03;;;;;;;;;;;;;;;21.80;65.56;101363.22;5068429;28;2347;-59
2022/11/02 07:30:32;;;;;;;;;;;;;;;21.79;65.60;101376.16;5070532;28;1707;-59
2022/11/02 07:32:58;;;;;;;;;;;;;;;21.79;65.72;101381.91;5066646;28;1576;-59
2022/11/02 07:35:24;;;;;;;;;;;;;;;21.80;65.27;101383.41;5065568;28;1657;-59
2022/11/02 07:37:57;;;;;;;;;;;;;;;21.78;65.51;101386.91;5071668;28;1638;-59
2022/11/02 07:40:23;;;;;;;;;;;;;;;21.77;65.34;101382.56;5066987;28;2348;-60
2022/11/02 07:42:52;;;;;;;;;;;;;;;21.77;65.65;101378.94;5069309;28;2405;-59
2022/11/02 07:45:24;;;;;;;;;;;;;;;21.78;65.38;101391.94;5064738;28;2275;-60
2022/11/02 07:47:51;;;;;;;;;;;;;;;21.75;65.33;101376.69;5066647;28;1508;-59
2022/11/02 07:50:18;;;;;;;;;;;;;;;21.74;65.34;101384.59;5066489;28;2617;-59
2022/11/02 07:52:45;;;;;;;;;;;;;;;21.60;63.67;101383.91;5067604;28;1611;-59
2022/11/02 07:55:11;;;;;;;;;;;;;;;21.52;63.15;101392.13;5064042;28;1706;-59
2022/11/02 07:57:38;;;;;;;;;;;;;;;21.51;62.20;101399.31;5070279;28;1728;-59
2022/11/02 08:00:04;;;;;;;;;;;;;;;21.45;61.25;101393.22;5067205;28;2848;-60
2022/11/02 08:02:36;;;;;;;;;;;;;;;21.43;61.27;101393.84;5068375;28;1627;-61
2022/11/02 08:05:03;;;;;;;;;;;;;;;21.42;61.16;101398.13;5064078;28;2809;-60
2022/11/02 08:07:30;;;;;;;;;;;;;;;21.45;60.47;101396.09;5067461;28;2467;-60
2022/11/02 08:09:56;;;;;;;;;;;;;;;21.42;61.04;101388.75;5062550;28;2723;-59
2022/11/02 08:12:22;;;;;;;;;;;;;;;21.44;60.11;101388.84;5060650;28;1624;-60
2022/11/02 08:14:49;;;;;;;;;;;;;;;21.45;59.71;101390.34;5066382;28;2775;-59
2022/11/02 08:17:15;;;;;;;;;;;;;;;21.45;58.52;101396.09;5066722;28;2674;-59
2022/11/02 08:19:41;;;;;;;;;;;;;;;21.40;59.13;101403.03;5068639;28;2725;-59
2022/11/02 08:22:07;;;;;;;;;;;;;;;21.46;58.94;101401.22;5071573;28;1582;-59
2022/11/02 08:24:34;;;;;;;;;;;;;;;21.50;58.94;101400.66;5068977;28;2874;-59
2022/11/02 08:27:00;;;;;;;;;;;;;;;21.57;58.75;101407.50;5070602;28;2938;-59
2022/11/02 08:29:26;;;;;;;;;;;;;;;21.59;58.87;101396.06;5069368;28;2824;-59
2022/11/02 08:31:53;;;;;;;;;;;;;;;21.57;59.65;101408.22;5067231;28;2540;-59
2022/11/02 08:34:19;;;;;;;;;;;;;;;21.60;59.70;101400.44;5069083;28;2600;-59
2022/11/02 08:36:46;;;;;;;;;;;;;;;21.58;59.65;101408.97;5069625;28;2817;-59
2022/11/02 08:39:12;;;;;;;;;;;;;;;20.83;57.86;101413.06;5070765;28;1988;-65
2022/11/02 08:41:44;;;;;;;;;;;;;;;20.73;58.50;101406.03;5066507;28;3204;-64
2022/11/02 08:44:10;;;;;;;;;;;;;;;20.89;57.92;101407.66;5069416;28;2698;-63
2022/11/02 08:46:37;;;;;;;;;;;;;;;20.97;56.98;101406.59;5075909;28;2729;-66
2022/11/02 08:49:03;;;;;;;;;;;;;;;20.97;56.88;101407.31;5074955;28;2552;-65
2022/11/02 08:51:29;;;;;;;;;;;;;;;20.94;56.59;101402.84;5078509;28;1838;-65
2022/11/02 08:53:55;;;;;;;;;;;;;;;21.08;57.27;101409.34;5074925;28;2898;-57
2022/11/02 08:56:22;;;;;;;;;;;;;;;21.32;57.91;101406.97;5077119;28;2744;-57
2022/11/02 08:58:48;;;;;;;;;;;;;;;21.42;58.25;101403.16;5075917;28;1583;-59
2022/11/02 09:01:15;;;;;;;;;;;;;;;21.42;59.04;101403.91;5078755;28;1829;-59
2022/11/02 09:03:41;;;;;;;;;;;;;;;21.44;59.54;101411.88;5082019;28;1979;-59
2022/11/02 09:06:08;;;;;;;;;;;;;;;21.46;59.83;101409.88;5079378;28;1583;-60
2022/11/02 09:08:34;;;;;;;;;;;;;;;21.44;60.33;101417.66;5064593;28;2889;-59
2022/11/02 09:11:01;;;;;;;;;;;;;;;21.45;60.15;101419.16;5070473;28;2365;-59
2022/11/02 09:13:27;;;;;;;;;;;;;;;21.08;57.60;101408.59;5058565;28;2847;-60
2022/11/02 09:15:54;;;;;;;;;;;;;;;21.21;57.61;101407.84;5074644;28;1583;-59
2022/11/02 09:18:21;;;;;;;;;;;;;;;21.34;57.58;101404.19;5065696;28;2872;-59
2022/11/02 09:20:47;;;;;;;;;;;;;;;21.43;58.11;101407.53;5068898;28;2796;-59
2022/11/02 09:23:17;;;;;;;;;;;;;;;21.45;59.24;101407.63;5067803;28;2740;-59
2022/11/02 09:25:44;;;;;;;;;;;;;;;21.47;59.64;101404.84;5066916;28;1922;-59
2022/11/02 09:28:10;;;;;;;;;;;;;;;21.47;59.84;101416.38;5077034;28;2784;-67
2022/11/02 09:30:36;;;;;;;;;;;;;;;21.46;60.72;101420.63;5069856;28;2520;-60
2022/11/02 09:33:03;;;;;;;;;;;;;;;21.49;60.66;101422.25;5055448;28;2850;-59
2022/11/02 09:35:34;;;;;;;;;;;;;;;21.50;60.87;101423.72;5070775;28;2251;-59
2022/11/02 09:38:00;;;;;;;;;;;;;;;21.50;61.25;101426.59;5067554;28;2643;-58
2022/11/02 09:40:27;;;;;;;;;;;;;;;21.47;61.33;101422.13;5060663;28;2522;-59
2022/11/02 09:43:02;;;;;;;;;;;;;;;21.49;61.56;101430.88;5058914;28;2884;-59
2022/11/02 09:45:31;;;;;;;;;;;;;;;21.48;61.62;101430.13;5059149;28;2767;-59
2022/11/02 09:47:59;;;;;;;;;;;;;;;21.47;61.75;101427.91;5056924;28;1771;-60
2022/11/02 09:50:51;;;;;;;;;;;;;;;21.49;61.87;101428.00;5069824;28;2784;-60
2022/11/02 09:53:23;;;;;;;;;;;;;;;21.53;61.67;101434.72;5068034;28;1671;-61
2022/11/02 09:55:51;;;;;;;;;;;;;;;21.54;61.66;101429.69;5063158;28;2916;-63
2022/11/02 09:58:18;;;;;;;;;;;;;;;21.54;62.23;101429.69;5066147;28;2934;-63
2022/11/02 10:00:46;;;;;;;;;;;;;;;21.48;62.55;101418.59;5065880;28;1841;-61
2022/11/02 10:03:17;;;;;;;;;;;;;;;21.49;62.31;101425.13;5067977;28;1537;-62
2022/11/02 10:06:04;;;;;;;;;;;;;;;21.49;62.08;101425.13;5069113;28;1910;-61
2022/11/02 10:08:42;;;;;;;;;;;;;;;21.51;62.08;101428.13;5062841;28;2999;-62
2022/11/02 10:11:21;;;;;;;;;;;;;;;21.54;62.07;101433.31;5069500;28;1568;-62
2022/11/02 10:13:52;;;;;;;;;;;;;;;21.57;62.15;101428.41;5055547;28;2990;-62
2022/11/02 10:16:33;;;;;;;;;;;;;;;21.52;62.36;101432.47;5072451;28;2968;-61
2022/11/02 10:18:59;;;;;;;;;;;;;;;21.54;62.09;101436.22;5069067;28;2871;-61
2022/11/02 10:21:33;;;;;;;;;;;;;;;21.55;62.31;101431.19;5063384;28;3342;-62
2022/11/02 10:24:08;;;;;;;;;;;;;;;21.53;62.12;101431.06;5067910;28;2960;-61
2022/11/02 10:26:35;;;;;;;;;;;;;;;21.56;62.21;101424.03;5074112;28;2594;-61
2022/11/02 10:29:17;;;;;;;;;;;;;;;21.54;62.55;101418.91;5071721;28;3188;-61
2022/11/02 10:31:43;;;;;;;;;;;;;;;21.51;62.35;101422.34;5073038;28;1790;-60
2022/11/02 10:34:14;;;;;;;;;;;;;;;21.49;62.19;101411.47;5068398;28;2655;-61
2022/11/02 10:36:45;;;;;;;;;;;;;;;21.49;61.37;101425.13;5072116;28;2573;-61
2022/11/02 10:39:30;;;;;;;;;;;;;;;21.47;60.80;101427.91;5060851;28;2526;-61
2022/11/02 10:41:59;;;;;;;;;;;;;;;21.48;60.92;101426.50;5063633;28;1592;-61
2022/11/02 10:44:29;;;;;;;;;;;;;;;21.50;60.78;101435.25;5060942;28;1977;-61
2022/11/02 10:47:02;;;;;;;;;;;;;;;21.49;61.19;101428.00;5062630;28;1834;-60
2022/11/02 10:49:42;;;;;;;;;;;;;;;21.52;61.15;101435.34;5064247;28;1588;-62
2022/11/02 10:52:10;;;;;;;;;;;;;;;21.54;61.19;101444.09;5068693;28;2271;-61
2022/11/02 10:54:37;;;;;;;;;;;;;;;21.54;61.44;101439.09;5074259;28;1547;-60
2022/11/02 10:57:07;;;;;;;;;;;;;;;21.58;61.18;101450.09;5063574;28;1571;-61
2022/11/02 10:59:34;;;;;;;;;;;;;;;21.58;61.35;101450.09;5064305;28;1916;-60
2022/11/02 11:02:03;;;;;;;;;;;;;;;21.55;61.33;101451.34;5063720;28;1655;-62
2022/11/02 11:04:30;;;;;;;;;;;;;;;21.57;61.76;101456.47;5063784;28;1918;-61
2022/11/02 11:06:57;;;;;;;;;;;;;;;21.52;61.77;101462.03;5050028;28;3369;-58
2022/11/02 11:09:24;;;;;;;;;;;;;;;21.29;55.48;101471.63;5061268;28;2984;-64
2022/11/02 11:11:54;;;;;;;;;;;;;;;21.23;54.64;101462.66;5056323;28;2817;-61
2022/11/02 11:14:22;;;;;;;;;;;;;;;21.39;55.43;101459.13;5059383;28;2898;-65
2022/11/02 11:17:26;;;;;;;;;;;;;;;21.37;54.83;101459.78;5064756;28;2842;-60
2022/11/02 11:20:30;;;;;;;;;;;;;;;21.49;55.00;101465.47;5063078;28;2954;-61
2022/11/02 11:23:14;;;;;;;;;;;;;;;21.58;56.87;101460.84;5060391;28;3245;-60
2022/11/02 11:25:40;;;;;;;;;;;;;;;21.60;57.44;101464.59;5061515;28;2857;-61
2022/11/02 11:28:25;;;;;;;;;;;;;;;21.60;58.17;101464.59;5058146;28;2714;-61
2022/11/02 11:31:00;;;;;;;;;;;;;;;21.60;57.97;101473.25;5066663;28;2898;-61
2022/11/02 11:33:27;;;;;;;;;;;;;;;21.61;58.48;101477.59;5069832;28;1651;-57
2022/11/02 11:35:53;;;;;;;;;;;;;;;21.62;58.96;101478.34;5062805;28;3022;-60
2022/11/02 11:38:20;;;;;;;;;;;;;;;21.59;60.59;101465.22;5061481;28;2682;-61
2022/11/02 11:40:47;;;;;;;;;;;;;;;21.60;59.83;101464.59;5066525;28;2913;-63
2022/11/02 11:43:14;;;;;;;;;;;;;;;21.61;59.93;101471.09;5067158;28;3124;-60
2022/11/02 11:45:52;;;;;;;;;;;;;;;21.36;57.68;101471.97;5056171;28;3281;-61
2022/11/02 11:48:25;;;;;;;;;;;;;;;21.41;57.07;101476.56;5066279;28;1670;-63
2022/11/02 11:50:51;;;;;;;;;;;;;;;21.48;57.03;101466.84;5063689;28;1529;-63
2022/11/02 11:53:21;;;;;;;;;;;;;;;21.50;57.05;101461.19;5069814;28;1652;-64
2022/11/02 11:55:54;;;;;;;;;;;;;;;21.52;57.16;101464.91;5074566;28;1603;-63
2022/11/02 11:58:21;;;;;;;;;;;;;;;21.54;56.77;101455.63;5072523;28;1803;-64
2022/11/02 12:01:04;;;;;;;;;;;;;;;21.55;57.12;101451.34;5073288;28;1711;-63
2022/11/02 12:03:54;;;;;;;;;;;;;;;21.53;57.61;101452.00;5073500;28;1632;-63
2022/11/02 12:06:36;;;;;;;;;;;;;;;21.51;57.83;101451.16;5072087;28;1909;-63
2022/11/02 12:09:11;;;;;;;;;;;;;;;21.51;57.84;101457.66;5073193;28;1741;-63
2022/11/02 12:11:37;;;;;;;;;;;;;;;21.54;57.66;101453.50;5075249;28;1620;-63
2022/11/02 12:14:07;;;;;;;;;;;;;;;21.58;58.17;101452.97;5075265;28;1782;-63
2022/11/02 12:16:53;;;;;;;;;;;;;;;21.59;57.70;101440.03;5075786;28;1682;-63
2022/11/02 12:19:32;;;;;;;;;;;;;;;21.60;57.71;101441.53;5076111;28;1551;-63
2022/11/02 12:22:18;;;;;;;;;;;;;;;21.61;57.96;101443.03;5075479;28;1814;-63
2022/11/02 12:24:55;;;;;;;;;;;;;;;21.66;57.13;101450.47;5076500;28;1913;-63
2022/11/02 12:27:31;;;;;;;;;;;;;;;21.66;57.77;101449.75;5076549;28;1611;-62
2022/11/02 12:30:01;;;;;;;;;;;;;;;21.66;57.58;101462.00;5076545;28;1572;-61
2022/11/02 12:32:46;;;;;;;;;;;;;;;21.63;57.67;101456.81;5077736;28;1635;-61
2022/11/02 12:35:34;;;;;;;;;;;;;;;21.64;57.87;101456.13;5072997;28;1696;-62
2022/11/02 12:38:10;;;;;;;;;;;;;;;21.68;57.54;101453.47;5077733;28;1539;-61
2022/11/02 12:40:55;;;;;;;;;;;;;;;21.73;57.38;101460.19;5078322;28;1682;-61
2022/11/02 12:43:24;;;;;;;;;;;;;;;21.74;57.36;101461.69;5076672;28;1864;-62
2022/11/02 12:46:01;;;;;;;;;;;;;;;21.74;56.76;101456.66;5076683;28;1923;-61
2022/11/02 12:48:36;;;;;;;;;;;;;;;21.75;56.37;101449.50;5073497;28;1615;-62
2022/11/02 12:51:04;;;;;;;;;;;;;;;21.78;56.18;101472.66;5078878;28;1599;-62
2022/11/02 12:53:36;;;;;;;;;;;;;;;21.77;56.37;101471.19;5077094;28;1692;-62
2022/11/02 12:56:03;;;;;;;;;;;;;;;21.73;56.34;101478.22;5077799;28;1727;-62
2022/11/02 12:58:31;;;;;;;;;;;;;;;21.67;56.53;101452.00;5079265;28;1683;-61
2022/11/02 13:01:00;;;;;;;;;;;;;;;21.66;57.23;101467.78;5076069;28;1853;-61
2022/11/02 13:03:45;;;;;;;;;;;;;;;21.71;56.63;101466.59;5077704;28;1588;-61
2022/11/02 13:06:12;;;;;;;;;;;;;;;21.72;56.39;101465.22;5078413;28;1967;-61
2022/11/02 13:08:41;;;;;;;;;;;;;;;21.67;56.25;101457.75;5080018;28;1643;-61
2022/11/02 13:11:10;;;;;;;;;;;;;;;21.67;56.80;101469.28;5075452;28;2784;-61
2022/11/02 13:13:38;;;;;;;;;;;;;;;21.70;56.28;101470.88;5077728;28;1664;-62
2022/11/02 13:16:05;;;;;;;;;;;;;;;21.72;56.37;101473.13;5082004;28;1503;-61
2022/11/02 13:18:42;;;;;;;;;;;;;;;21.67;56.45;101471.41;5070982;28;1976;-61